sensor_id;sensor_type;location;lat;lon;timestamp;temperature;humidity
64983;DHT22;69426;28.138;-15.436;2023-04-25T00:00:52;19.87;72.07
64983;DHT22;69426;28.138;-15.436;2023-04-25T00:03:18;19.83;72.35
64983;DHT22;69426;28.138;-15.436;2023-04-25T00:05:44;19.78;72.34
64983;DHT22;69426;28.138;-15.436;2023-04-25T00:08:10;19.72;72.19
64983;DHT22;69426;28.138;-15.436;2023-04-25T00:10:36;19.78;72.54
64983;DHT22;69426;28.138;-15.436;2023-04-25T00:13:02;19.76;72.81
64983;DHT22;69426;28.138;-15.436;2023-04-25T00:15:28;19.82;73.26
64983;DHT22;69426;28.138;-15.436;2023-04-25T00:17:56;19.69;73.02
64983;DHT22;69426;28.138;-15.436;2023-04-25T00:20:22;19.69;73.29
64983;DHT22;69426;28.138;-15.436;2023-04-25T00:22:49;19.75;73.65
64983;DHT22;69426;28.138;-15.436;2023-04-25T00:25:15;19.73;73.63
64983;DHT22;69426;28.138;-15.436;2023-04-25T00:27:40;19.73;73.82
64983;DHT22;69426;28.138;-15.436;2023-04-25T00:30:07;19.79;74.06
64983;DHT22;69426;28.138;-15.436;2023-04-25T00:32:33;19.81;73.90
64983;DHT22;69426;28.138;-15.436;2023-04-25T00:34:59;19.73;73.58
64983;DHT22;69426;28.138;-15.436;2023-04-25T00:37:25;19.72;73.25
64983;DHT22;69426;28.138;-15.436;2023-04-25T00:39:51;19.76;73.53
64983;DHT22;69426;28.138;-15.436;2023-04-25T00:42:19;19.81;73.85
64983;DHT22;69426;28.138;-15.436;2023-04-25T00:44:45;19.76;73.88
64983;DHT22;69426;28.138;-15.436;2023-04-25T00:47:11;19.79;74.50
64983;DHT22;69426;28.138;-15.436;2023-04-25T00:49:37;19.75;74.23
64983;DHT22;69426;28.138;-15.436;2023-04-25T00:52:03;19.75;73.86
64983;DHT22;69426;28.138;-15.436;2023-04-25T00:54:29;19.73;73.77
64983;DHT22;69426;28.138;-15.436;2023-04-25T00:56:56;19.73;73.53
64983;DHT22;69426;28.138;-15.436;2023-04-25T00:59:22;19.78;73.34
64983;DHT22;69426;28.138;-15.436;2023-04-25T01:01:48;19.76;73.36
64983;DHT22;69426;28.138;-15.436;2023-04-25T01:04:13;19.71;72.90
64983;DHT22;69426;28.138;-15.436;2023-04-25T01:06:40;19.76;73.13
64983;DHT22;69426;28.138;-15.436;2023-04-25T01:09:06;19.72;72.92
64983;DHT22;69426;28.138;-15.436;2023-04-25T01:11:33;19.78;73.46
64983;DHT22;69426;28.138;-15.436;2023-04-25T01:13:58;19.82;73.75
64983;DHT22;69426;28.138;-15.436;2023-04-25T01:16:24;19.75;73.28
64983;DHT22;69426;28.138;-15.436;2023-04-25T01:18:50;19.79;73.44
64983;DHT22;69426;28.138;-15.436;2023-04-25T01:21:16;19.83;73.62
64983;DHT22;69426;28.138;-15.436;2023-04-25T01:23:42;19.87;73.97
64983;DHT22;69426;28.138;-15.436;2023-04-25T01:26:09;19.86;74.11
64983;DHT22;69426;28.138;-15.436;2023-04-25T01:28:35;19.82;74.13
64983;DHT22;69426;28.138;-15.436;2023-04-25T01:31:01;19.81;74.17
64983;DHT22;69426;28.138;-15.436;2023-04-25T01:33:27;19.81;73.91
64983;DHT22;69426;28.138;-15.436;2023-04-25T01:35:53;19.69;72.56
64983;DHT22;69426;28.138;-15.436;2023-04-25T01:38:20;19.79;72.70
64983;DHT22;69426;28.138;-15.436;2023-04-25T01:40:46;19.76;72.34
64983;DHT22;69426;28.138;-15.436;2023-04-25T01:43:14;19.83;73.21
64983;DHT22;69426;28.138;-15.436;2023-04-25T01:45:43;19.81;73.78
64983;DHT22;69426;28.138;-15.436;2023-04-25T01:48:10;19.82;73.62
64983;DHT22;69426;28.138;-15.436;2023-04-25T01:50:36;19.81;73.65
64983;DHT22;69426;28.138;-15.436;2023-04-25T01:53:02;19.90;74.45
64983;DHT22;69426;28.138;-15.436;2023-04-25T01:55:29;19.75;73.40
64983;DHT22;69426;28.138;-15.436;2023-04-25T01:57:55;19.78;73.27
64983;DHT22;69426;28.138;-15.436;2023-04-25T02:00:20;19.76;72.85
64983;DHT22;69426;28.138;-15.436;2023-04-25T02:02:46;19.71;72.41
64983;DHT22;69426;28.138;-15.436;2023-04-25T02:05:12;19.69;72.08
64983;DHT22;69426;28.138;-15.436;2023-04-25T02:07:37;19.72;71.97
64983;DHT22;69426;28.138;-15.436;2023-04-25T02:10:03;19.69;71.56
64983;DHT22;69426;28.138;-15.436;2023-04-25T02:12:31;19.78;72.50
64983;DHT22;69426;28.138;-15.436;2023-04-25T02:14:57;19.79;73.34
64983;DHT22;69426;28.138;-15.436;2023-04-25T02:17:23;19.64;73.01
64983;DHT22;69426;28.138;-15.436;2023-04-25T02:19:48;19.61;72.52
64983;DHT22;69426;28.138;-15.436;2023-04-25T02:22:14;19.65;72.83
64983;DHT22;69426;28.138;-15.436;2023-04-25T02:24:40;19.62;72.82
64983;DHT22;69426;28.138;-15.436;2023-04-25T02:27:05;19.59;72.98
64983;DHT22;69426;28.138;-15.436;2023-04-25T02:29:31;19.59;72.98
64983;DHT22;69426;28.138;-15.436;2023-04-25T02:31:57;19.69;73.68
64983;DHT22;69426;28.138;-15.436;2023-04-25T02:34:23;19.59;73.48
64983;DHT22;69426;28.138;-15.436;2023-04-25T02:36:49;19.65;73.81
64983;DHT22;69426;28.138;-15.436;2023-04-25T02:39:16;19.69;74.45
64983;DHT22;69426;28.138;-15.436;2023-04-25T02:41:42;19.55;73.80
64983;DHT22;69426;28.138;-15.436;2023-04-25T02:44:08;19.54;73.81
64983;DHT22;69426;28.138;-15.436;2023-04-25T02:46:33;19.57;73.83
64983;DHT22;69426;28.138;-15.436;2023-04-25T02:48:59;19.59;73.94
64983;DHT22;69426;28.138;-15.436;2023-04-25T02:51:25;19.62;74.24
64983;DHT22;69426;28.138;-15.436;2023-04-25T02:53:51;19.69;74.52
64983;DHT22;69426;28.138;-15.436;2023-04-25T02:56:17;19.68;74.73
64983;DHT22;69426;28.138;-15.436;2023-04-25T02:58:42;19.62;74.82
64983;DHT22;69426;28.138;-15.436;2023-04-25T03:01:08;19.66;74.90
64983;DHT22;69426;28.138;-15.436;2023-04-25T03:03:34;19.68;74.99
64983;DHT22;69426;28.138;-15.436;2023-04-25T03:06:00;19.73;75.14
64983;DHT22;69426;28.138;-15.436;2023-04-25T03:08:26;19.62;74.58
64983;DHT22;69426;28.138;-15.436;2023-04-25T03:10:54;19.71;74.94
64983;DHT22;69426;28.138;-15.436;2023-04-25T03:13:20;19.58;74.56
64983;DHT22;69426;28.138;-15.436;2023-04-25T03:15:46;19.52;74.43
64983;DHT22;69426;28.138;-15.436;2023-04-25T03:18:12;19.54;74.82
64983;DHT22;69426;28.138;-15.436;2023-04-25T03:20:37;19.50;74.71
64983;DHT22;69426;28.138;-15.436;2023-04-25T03:23:04;19.50;74.82
64983;DHT22;69426;28.138;-15.436;2023-04-25T03:25:30;19.48;74.74
64983;DHT22;69426;28.138;-15.436;2023-04-25T03:27:56;19.48;74.86
64983;DHT22;69426;28.138;-15.436;2023-04-25T03:30:22;19.47;75.00
64983;DHT22;69426;28.138;-15.436;2023-04-25T03:32:48;19.47;75.30
64983;DHT22;69426;28.138;-15.436;2023-04-25T03:35:13;19.54;75.50
64983;DHT22;69426;28.138;-15.436;2023-04-25T03:37:39;19.59;75.79
64983;DHT22;69426;28.138;-15.436;2023-04-25T03:40:06;19.50;75.28
64983;DHT22;69426;28.138;-15.436;2023-04-25T03:42:32;19.52;75.39
64983;DHT22;69426;28.138;-15.436;2023-04-25T03:44:57;19.52;75.76
64983;DHT22;69426;28.138;-15.436;2023-04-25T03:47:23;19.57;75.86
64983;DHT22;69426;28.138;-15.436;2023-04-25T03:49:49;19.47;75.92
64983;DHT22;69426;28.138;-15.436;2023-04-25T03:52:17;19.55;76.18
64983;DHT22;69426;28.138;-15.436;2023-04-25T03:54:43;19.43;75.60
64983;DHT22;69426;28.138;-15.436;2023-04-25T03:57:08;19.43;75.38
64983;DHT22;69426;28.138;-15.436;2023-04-25T03:59:34;19.41;75.06
64983;DHT22;69426;28.138;-15.436;2023-04-25T04:02:00;19.45;75.48
64983;DHT22;69426;28.138;-15.436;2023-04-25T04:04:26;19.47;75.50
64983;DHT22;69426;28.138;-15.436;2023-04-25T04:06:51;19.47;75.39
64983;DHT22;69426;28.138;-15.436;2023-04-25T04:09:18;19.44;75.55
64983;DHT22;69426;28.138;-15.436;2023-04-25T04:11:44;19.45;75.58
64983;DHT22;69426;28.138;-15.436;2023-04-25T04:14:10;19.45;75.53
64983;DHT22;69426;28.138;-15.436;2023-04-25T04:16:36;19.47;76.04
64983;DHT22;69426;28.138;-15.436;2023-04-25T04:19:02;19.48;76.04
64983;DHT22;69426;28.138;-15.436;2023-04-25T04:21:28;19.51;76.13
64983;DHT22;69426;28.138;-15.436;2023-04-25T04:23:54;19.47;75.79
64983;DHT22;69426;28.138;-15.436;2023-04-25T04:26:20;19.45;75.62
64983;DHT22;69426;28.138;-15.436;2023-04-25T04:28:50;19.45;75.52
64983;DHT22;69426;28.138;-15.436;2023-04-25T04:31:17;19.44;75.56
64983;DHT22;69426;28.138;-15.436;2023-04-25T04:33:45;19.47;75.70
64983;DHT22;69426;28.138;-15.436;2023-04-25T04:36:11;19.44;75.39
64983;DHT22;69426;28.138;-15.436;2023-04-25T04:38:37;19.45;75.57
64983;DHT22;69426;28.138;-15.436;2023-04-25T04:41:03;19.44;75.28
64983;DHT22;69426;28.138;-15.436;2023-04-25T04:43:28;19.48;75.28
64983;DHT22;69426;28.138;-15.436;2023-04-25T04:45:55;19.48;75.34
64983;DHT22;69426;28.138;-15.436;2023-04-25T04:48:23;19.57;75.76
64983;DHT22;69426;28.138;-15.436;2023-04-25T04:50:49;19.59;75.70
64983;DHT22;69426;28.138;-15.436;2023-04-25T04:53:15;19.59;75.56
64983;DHT22;69426;28.138;-15.436;2023-04-25T04:55:40;19.43;74.58
64983;DHT22;69426;28.138;-15.436;2023-04-25T04:58:07;19.55;74.58
64983;DHT22;69426;28.138;-15.436;2023-04-25T05:00:32;19.66;75.26
64983;DHT22;69426;28.138;-15.436;2023-04-25T05:02:58;19.61;75.59
64983;DHT22;69426;28.138;-15.436;2023-04-25T05:05:24;19.57;75.50
64983;DHT22;69426;28.138;-15.436;2023-04-25T05:07:50;19.59;75.64
64983;DHT22;69426;28.138;-15.436;2023-04-25T05:10:18;19.61;75.73
64983;DHT22;69426;28.138;-15.436;2023-04-25T05:12:43;19.55;75.38
64983;DHT22;69426;28.138;-15.436;2023-04-25T05:15:09;19.52;74.96
64983;DHT22;69426;28.138;-15.436;2023-04-25T05:17:35;19.52;74.79
64983;DHT22;69426;28.138;-15.436;2023-04-25T05:20:01;19.51;74.90
64983;DHT22;69426;28.138;-15.436;2023-04-25T05:22:27;19.58;75.05
64983;DHT22;69426;28.138;-15.436;2023-04-25T05:24:53;19.58;75.43
64983;DHT22;69426;28.138;-15.436;2023-04-25T05:27:19;19.57;75.74
64983;DHT22;69426;28.138;-15.436;2023-04-25T05:29:45;19.51;75.49
64983;DHT22;69426;28.138;-15.436;2023-04-25T05:32:11;19.52;75.34
64983;DHT22;69426;28.138;-15.436;2023-04-25T05:34:36;19.45;74.92
64983;DHT22;69426;28.138;-15.436;2023-04-25T05:37:02;19.45;74.62
64983;DHT22;69426;28.138;-15.436;2023-04-25T05:39:28;19.51;74.51
64983;DHT22;69426;28.138;-15.436;2023-04-25T05:41:54;19.52;74.10
64983;DHT22;69426;28.138;-15.436;2023-04-25T05:44:19;19.59;74.78
64983;DHT22;69426;28.138;-15.436;2023-04-25T05:46:45;19.55;74.71
64983;DHT22;69426;28.138;-15.436;2023-04-25T05:49:11;19.58;74.92
64983;DHT22;69426;28.138;-15.436;2023-04-25T05:51:36;19.65;75.24
64983;DHT22;69426;28.138;-15.436;2023-04-25T05:54:02;19.69;75.78
64983;DHT22;69426;28.138;-15.436;2023-04-25T05:56:28;19.64;75.52
64983;DHT22;69426;28.138;-15.436;2023-04-25T05:58:54;19.61;75.10
64983;DHT22;69426;28.138;-15.436;2023-04-25T06:01:21;19.55;74.54
64983;DHT22;69426;28.138;-15.436;2023-04-25T06:03:47;19.54;73.65
64983;DHT22;69426;28.138;-15.436;2023-04-25T06:06:12;19.52;73.36
64983;DHT22;69426;28.138;-15.436;2023-04-25T06:08:39;19.48;72.36
64983;DHT22;69426;28.138;-15.436;2023-04-25T06:11:05;19.52;71.94
64983;DHT22;69426;28.138;-15.436;2023-04-25T06:13:31;19.54;71.88
64983;DHT22;69426;28.138;-15.436;2023-04-25T06:15:57;19.59;72.08
64983;DHT22;69426;28.138;-15.436;2023-04-25T06:18:23;19.64;73.01
64983;DHT22;69426;28.138;-15.436;2023-04-25T06:20:48;19.58;72.71
64983;DHT22;69426;28.138;-15.436;2023-04-25T06:23:14;19.61;72.52
64983;DHT22;69426;28.138;-15.436;2023-04-25T06:25:39;19.64;72.85
64983;DHT22;69426;28.138;-15.436;2023-04-25T06:28:05;19.65;73.16
64983;DHT22;69426;28.138;-15.436;2023-04-25T06:30:31;19.68;74.11
64983;DHT22;69426;28.138;-15.436;2023-04-25T06:32:56;19.71;74.52
64983;DHT22;69426;28.138;-15.436;2023-04-25T06:35:22;19.66;74.38
64983;DHT22;69426;28.138;-15.436;2023-04-25T06:37:48;19.71;74.62
64983;DHT22;69426;28.138;-15.436;2023-04-25T06:40:13;19.68;74.13
64983;DHT22;69426;28.138;-15.436;2023-04-25T06:42:40;19.57;72.93
64983;DHT22;69426;28.138;-15.436;2023-04-25T06:45:06;19.57;71.37
64983;DHT22;69426;28.138;-15.436;2023-04-25T06:47:32;19.55;70.39
64983;DHT22;69426;28.138;-15.436;2023-04-25T06:49:57;19.65;70.40
64983;DHT22;69426;28.138;-15.436;2023-04-25T06:52:23;19.64;70.66
64983;DHT22;69426;28.138;-15.436;2023-04-25T06:54:49;19.69;70.67
64983;DHT22;69426;28.138;-15.436;2023-04-25T06:57:14;19.78;71.79
64983;DHT22;69426;28.138;-15.436;2023-04-25T06:59:40;19.81;72.54
64983;DHT22;69426;28.138;-15.436;2023-04-25T07:02:06;19.71;72.19
64983;DHT22;69426;28.138;-15.436;2023-04-25T07:04:31;19.75;72.52
64983;DHT22;69426;28.138;-15.436;2023-04-25T07:06:57;19.69;72.16
64983;DHT22;69426;28.138;-15.436;2023-04-25T07:09:23;19.72;72.17
64983;DHT22;69426;28.138;-15.436;2023-04-25T07:11:49;19.73;71.89
64983;DHT22;69426;28.138;-15.436;2023-04-25T07:14:14;19.73;71.10
64983;DHT22;69426;28.138;-15.436;2023-04-25T07:16:40;19.69;69.89
64983;DHT22;69426;28.138;-15.436;2023-04-25T07:19:07;19.78;70.35
64983;DHT22;69426;28.138;-15.436;2023-04-25T07:21:32;19.82;70.60
64983;DHT22;69426;28.138;-15.436;2023-04-25T07:23:58;19.81;70.03
64983;DHT22;69426;28.138;-15.436;2023-04-25T07:26:24;19.78;69.21
64983;DHT22;69426;28.138;-15.436;2023-04-25T07:28:50;19.76;69.06
64983;DHT22;69426;28.138;-15.436;2023-04-25T07:31:17;19.76;68.85
64983;DHT22;69426;28.138;-15.436;2023-04-25T07:33:44;19.78;68.31
64983;DHT22;69426;28.138;-15.436;2023-04-25T07:36:12;19.76;67.96
64983;DHT22;69426;28.138;-15.436;2023-04-25T07:38:40;19.81;68.20
64983;DHT22;69426;28.138;-15.436;2023-04-25T07:41:06;19.86;68.02
64983;DHT22;69426;28.138;-15.436;2023-04-25T07:43:31;19.85;68.01
64983;DHT22;69426;28.138;-15.436;2023-04-25T07:45:57;19.78;67.72
64983;DHT22;69426;28.138;-15.436;2023-04-25T07:48:23;19.86;67.78
64983;DHT22;69426;28.138;-15.436;2023-04-25T07:50:49;19.92;68.13
64983;DHT22;69426;28.138;-15.436;2023-04-25T07:53:14;19.96;68.35
64983;DHT22;69426;28.138;-15.436;2023-04-25T07:55:41;19.94;68.75
64983;DHT22;69426;28.138;-15.436;2023-04-25T07:58:07;20.00;68.90
64983;DHT22;69426;28.138;-15.436;2023-04-25T08:00:32;20.00;68.43
64983;DHT22;69426;28.138;-15.436;2023-04-25T08:02:58;19.96;68.09
64983;DHT22;69426;28.138;-15.436;2023-04-25T08:05:24;20.00;67.91
64983;DHT22;69426;28.138;-15.436;2023-04-25T08:07:49;20.02;67.83
64983;DHT22;69426;28.138;-15.436;2023-04-25T08:10:15;20.05;67.87
64983;DHT22;69426;28.138;-15.436;2023-04-25T08:12:41;20.02;67.96
64983;DHT22;69426;28.138;-15.436;2023-04-25T08:15:07;20.03;67.80
64983;DHT22;69426;28.138;-15.436;2023-04-25T08:17:33;20.03;67.59
64983;DHT22;69426;28.138;-15.436;2023-04-25T08:19:59;20.02;67.80
64983;DHT22;69426;28.138;-15.436;2023-04-25T08:22:25;20.00;67.49
64983;DHT22;69426;28.138;-15.436;2023-04-25T08:24:50;20.02;67.78
64983;DHT22;69426;28.138;-15.436;2023-04-25T08:27:18;20.03;68.40
64983;DHT22;69426;28.138;-15.436;2023-04-25T08:29:44;20.06;68.40
64983;DHT22;69426;28.138;-15.436;2023-04-25T08:32:09;20.03;68.63
64983;DHT22;69426;28.138;-15.436;2023-04-25T08:34:35;19.97;68.06
64983;DHT22;69426;28.138;-15.436;2023-04-25T08:37:03;20.02;68.80
64983;DHT22;69426;28.138;-15.436;2023-04-25T08:39:29;20.10;68.29
64983;DHT22;69426;28.138;-15.436;2023-04-25T08:41:56;20.05;68.03
64983;DHT22;69426;28.138;-15.436;2023-04-25T08:44:22;20.05;67.58
64983;DHT22;69426;28.138;-15.436;2023-04-25T08:46:49;20.08;67.63
64983;DHT22;69426;28.138;-15.436;2023-04-25T08:49:18;20.14;67.59
64983;DHT22;69426;28.138;-15.436;2023-04-25T08:51:45;20.14;67.71
64983;DHT22;69426;28.138;-15.436;2023-04-25T08:54:13;20.24;67.63
64983;DHT22;69426;28.138;-15.436;2023-04-25T08:56:41;20.33;67.70
64983;DHT22;69426;28.138;-15.436;2023-04-25T08:59:10;20.36;68.16
64983;DHT22;69426;28.138;-15.436;2023-04-25T09:01:36;20.41;68.73
64983;DHT22;69426;28.138;-15.436;2023-04-25T09:04:02;20.45;68.42
64983;DHT22;69426;28.138;-15.436;2023-04-25T09:06:29;20.52;68.58
64983;DHT22;69426;28.138;-15.436;2023-04-25T09:09:02;20.45;68.85
64983;DHT22;69426;28.138;-15.436;2023-04-25T09:11:29;20.36;68.71
64983;DHT22;69426;28.138;-15.436;2023-04-25T09:19:30;20.48;68.12
64983;DHT22;69426;28.138;-15.436;2023-04-25T09:22:02;20.50;67.88
64983;DHT22;69426;28.138;-15.436;2023-04-25T09:26:58;20.50;67.31
64983;DHT22;69426;28.138;-15.436;2023-04-25T09:29:35;20.58;67.29
64983;DHT22;69426;28.138;-15.436;2023-04-25T09:34:57;20.72;67.04
64983;DHT22;69426;28.138;-15.436;2023-04-25T09:37:28;20.77;66.92
64983;DHT22;69426;28.138;-15.436;2023-04-25T09:39:58;20.81;67.22
64983;DHT22;69426;28.138;-15.436;2023-04-25T09:42:26;20.81;67.22
64983;DHT22;69426;28.138;-15.436;2023-04-25T09:44:53;20.69;67.05
64983;DHT22;69426;28.138;-15.436;2023-04-25T09:47:20;20.77;67.43
64983;DHT22;69426;28.138;-15.436;2023-04-25T09:49:48;20.87;67.24
64983;DHT22;69426;28.138;-15.436;2023-04-25T09:52:18;20.94;67.09
64983;DHT22;69426;28.138;-15.436;2023-04-25T09:54:45;21.00;66.97
64983;DHT22;69426;28.138;-15.436;2023-04-25T09:57:21;20.96;66.72
64983;DHT22;69426;28.138;-15.436;2023-04-25T09:59:52;21.05;66.94
64983;DHT22;69426;28.138;-15.436;2023-04-25T10:02:19;21.06;66.57
64983;DHT22;69426;28.138;-15.436;2023-04-25T10:04:49;21.05;66.13
64983;DHT22;69426;28.138;-15.436;2023-04-25T10:07:18;21.18;66.77
64983;DHT22;69426;28.138;-15.436;2023-04-25T10:09:47;21.15;67.27
64983;DHT22;69426;28.138;-15.436;2023-04-25T10:12:16;21.10;66.62
64983;DHT22;69426;28.138;-15.436;2023-04-25T10:14:42;21.00;66.58
64983;DHT22;69426;28.138;-15.436;2023-04-25T10:17:10;21.09;66.87
64983;DHT22;69426;28.138;-15.436;2023-04-25T10:19:35;21.20;66.98
64983;DHT22;69426;28.138;-15.436;2023-04-25T10:22:08;21.16;66.28
64983;DHT22;69426;28.138;-15.436;2023-04-25T10:24:37;21.36;66.29
64983;DHT22;69426;28.138;-15.436;2023-04-25T10:27:04;21.27;65.66
64983;DHT22;69426;28.138;-15.436;2023-04-25T10:29:31;21.29;65.79
64983;DHT22;69426;28.138;-15.436;2023-04-25T10:31:57;21.32;65.82
64983;DHT22;69426;28.138;-15.436;2023-04-25T10:34:43;21.29;65.90
64983;DHT22;69426;28.138;-15.436;2023-04-25T10:37:12;21.35;65.77
64983;DHT22;69426;28.138;-15.436;2023-04-25T10:39:42;21.45;65.89
64983;DHT22;69426;28.138;-15.436;2023-04-25T10:42:08;21.50;65.50
64983;DHT22;69426;28.138;-15.436;2023-04-25T10:44:37;21.37;65.45
64983;DHT22;69426;28.138;-15.436;2023-04-25T10:47:02;21.39;65.56
64983;DHT22;69426;28.138;-15.436;2023-04-25T10:49:38;21.63;65.62
64983;DHT22;69426;28.138;-15.436;2023-04-25T10:52:26;21.80;64.61
64983;DHT22;69426;28.138;-15.436;2023-04-25T10:54:57;21.90;64.70
64983;DHT22;69426;28.138;-15.436;2023-04-25T10:57:30;21.98;65.10
64983;DHT22;69426;28.138;-15.436;2023-04-25T11:00:01;22.00;65.11
64983;DHT22;69426;28.138;-15.436;2023-04-25T11:02:30;21.97;65.34
64983;DHT22;69426;28.138;-15.436;2023-04-25T11:04:56;22.09;65.57
64983;DHT22;69426;28.138;-15.436;2023-04-25T11:07:39;21.90;64.50
64983;DHT22;69426;28.138;-15.436;2023-04-25T11:10:09;21.93;64.64
64983;DHT22;69426;28.138;-15.436;2023-04-25T11:12:35;21.91;64.65
64983;DHT22;69426;28.138;-15.436;2023-04-25T11:15:04;21.98;64.46
64983;DHT22;69426;28.138;-15.436;2023-04-25T11:17:31;21.93;64.27
64983;DHT22;69426;28.138;-15.436;2023-04-25T11:19:57;22.01;64.57
64983;DHT22;69426;28.138;-15.436;2023-04-25T11:22:23;21.94;64.52
64983;DHT22;69426;28.138;-15.436;2023-04-25T11:24:49;21.94;64.48
64983;DHT22;69426;28.138;-15.436;2023-04-25T11:27:16;21.94;64.93
64983;DHT22;69426;28.138;-15.436;2023-04-25T11:29:41;22.09;64.52
64983;DHT22;69426;28.138;-15.436;2023-04-25T11:32:07;22.19;64.44
64983;DHT22;69426;28.138;-15.436;2023-04-25T11:34:33;22.21;64.80
64983;DHT22;69426;28.138;-15.436;2023-04-25T11:37:00;22.14;65.14
64983;DHT22;69426;28.138;-15.436;2023-04-25T11:39:27;22.21;65.11
64983;DHT22;69426;28.138;-15.436;2023-04-25T11:41:54;22.11;64.26
64983;DHT22;69426;28.138;-15.436;2023-04-25T11:44:21;22.22;64.39
64983;DHT22;69426;28.138;-15.436;2023-04-25T11:46:47;22.21;64.86
64983;DHT22;69426;28.138;-15.436;2023-04-25T11:49:14;22.25;64.70
64983;DHT22;69426;28.138;-15.436;2023-04-25T11:51:44;22.43;64.60
64983;DHT22;69426;28.138;-15.436;2023-04-25T11:54:11;22.52;64.13
64983;DHT22;69426;28.138;-15.436;2023-04-25T11:56:37;22.56;64.30
64983;DHT22;69426;28.138;-15.436;2023-04-25T11:59:06;22.29;64.92
64983;DHT22;69426;28.138;-15.436;2023-04-25T12:01:36;22.29;64.85
64983;DHT22;69426;28.138;-15.436;2023-04-25T12:06:44;22.25;65.23
64983;DHT22;69426;28.138;-15.436;2023-04-25T12:09:14;22.36;65.74
64983;DHT22;69426;28.138;-15.436;2023-04-25T12:12:00;22.50;65.68
64983;DHT22;69426;28.138;-15.436;2023-04-25T12:14:33;22.49;65.48
64983;DHT22;69426;28.138;-15.436;2023-04-25T12:17:01;22.46;65.48
64983;DHT22;69426;28.138;-15.436;2023-04-25T12:19:36;22.41;66.00
64983;DHT22;69426;28.138;-15.436;2023-04-25T12:22:02;22.05;66.98
64983;DHT22;69426;28.138;-15.436;2023-04-25T12:24:33;21.97;67.12
64983;DHT22;69426;28.138;-15.436;2023-04-25T12:27:04;22.04;66.43
64983;DHT22;69426;28.138;-15.436;2023-04-25T12:29:34;22.08;66.45
64983;DHT22;69426;28.138;-15.436;2023-04-25T12:32:00;22.00;66.50
64983;DHT22;69426;28.138;-15.436;2023-04-25T12:34:27;21.97;66.23
64983;DHT22;69426;28.138;-15.436;2023-04-25T12:36:53;21.78;66.39
64983;DHT22;69426;28.138;-15.436;2023-04-25T12:39:23;21.75;67.18
64983;DHT22;69426;28.138;-15.436;2023-04-25T12:41:50;21.73;66.34
64983;DHT22;69426;28.138;-15.436;2023-04-25T12:44:19;21.81;66.80
64983;DHT22;69426;28.138;-15.436;2023-04-25T12:46:45;21.83;67.02
64983;DHT22;69426;28.138;-15.436;2023-04-25T12:49:11;21.63;66.59
64983;DHT22;69426;28.138;-15.436;2023-04-25T12:51:37;21.68;67.33
64983;DHT22;69426;28.138;-15.436;2023-04-25T12:54:05;21.68;67.50
64983;DHT22;69426;28.138;-15.436;2023-04-25T12:56:35;21.58;67.26
64983;DHT22;69426;28.138;-15.436;2023-04-25T12:59:01;21.66;67.89
64983;DHT22;69426;28.138;-15.436;2023-04-25T13:01:30;21.68;67.97
64983;DHT22;69426;28.138;-15.436;2023-04-25T13:03:56;21.53;66.72
64983;DHT22;69426;28.138;-15.436;2023-04-25T13:06:22;21.67;66.63
64983;DHT22;69426;28.138;-15.436;2023-04-25T13:08:48;21.66;65.24
64983;DHT22;69426;28.138;-15.436;2023-04-25T13:11:13;21.73;66.34
64983;DHT22;69426;28.138;-15.436;2023-04-25T13:13:42;21.74;66.80
64983;DHT22;69426;28.138;-15.436;2023-04-25T13:16:08;21.73;66.81
64983;DHT22;69426;28.138;-15.436;2023-04-25T13:18:35;21.70;67.16
64983;DHT22;69426;28.138;-15.436;2023-04-25T13:21:00;21.68;67.09
64983;DHT22;69426;28.138;-15.436;2023-04-25T13:23:28;21.67;66.95
64983;DHT22;69426;28.138;-15.436;2023-04-25T13:25:55;21.57;66.66
64983;DHT22;69426;28.138;-15.436;2023-04-25T13:28:26;21.73;67.08
64983;DHT22;69426;28.138;-15.436;2023-04-25T13:30:51;21.73;66.79
64983;DHT22;69426;28.138;-15.436;2023-04-25T13:33:18;21.68;67.20
64983;DHT22;69426;28.138;-15.436;2023-04-25T13:35:44;21.73;67.26
64983;DHT22;69426;28.138;-15.436;2023-04-25T13:38:12;21.66;67.49
64983;DHT22;69426;28.138;-15.436;2023-04-25T13:40:38;21.87;68.11
64983;DHT22;69426;28.138;-15.436;2023-04-25T13:43:04;21.74;67.50
64983;DHT22;69426;28.138;-15.436;2023-04-25T13:45:32;21.87;67.80
64983;DHT22;69426;28.138;-15.436;2023-04-25T13:47:57;21.83;66.66
64983;DHT22;69426;28.138;-15.436;2023-04-25T13:50:23;21.88;67.09
64983;DHT22;69426;28.138;-15.436;2023-04-25T13:52:49;21.68;66.40
64983;DHT22;69426;28.138;-15.436;2023-04-25T13:55:15;21.61;66.46
64983;DHT22;69426;28.138;-15.436;2023-04-25T13:57:41;21.73;67.21
64983;DHT22;69426;28.138;-15.436;2023-04-25T14:00:07;21.70;67.15
64983;DHT22;69426;28.138;-15.436;2023-04-25T14:02:36;21.73;67.09
64983;DHT22;69426;28.138;-15.436;2023-04-25T14:05:03;21.90;67.12
64983;DHT22;69426;28.138;-15.436;2023-04-25T14:07:29;22.00;66.77
64983;DHT22;69426;28.138;-15.436;2023-04-25T14:09:56;21.83;66.87
64983;DHT22;69426;28.138;-15.436;2023-04-25T14:12:24;21.90;67.45
64983;DHT22;69426;28.138;-15.436;2023-04-25T14:14:50;22.04;67.20
64983;DHT22;69426;28.138;-15.436;2023-04-25T14:17:18;22.14;66.80
64983;DHT22;69426;28.138;-15.436;2023-04-25T14:19:44;22.14;66.30
64983;DHT22;69426;28.138;-15.436;2023-04-25T14:22:11;22.05;66.28
64983;DHT22;69426;28.138;-15.436;2023-04-25T14:24:37;22.05;67.04
64983;DHT22;69426;28.138;-15.436;2023-04-25T14:27:03;22.15;67.01
64983;DHT22;69426;28.138;-15.436;2023-04-25T14:29:29;21.98;66.75
64983;DHT22;69426;28.138;-15.436;2023-04-25T14:31:55;21.84;67.10
64983;DHT22;69426;28.138;-15.436;2023-04-25T14:34:23;21.94;67.26
64983;DHT22;69426;28.138;-15.436;2023-04-25T14:36:50;22.02;67.04
64983;DHT22;69426;28.138;-15.436;2023-04-25T14:39:16;22.04;67.21
64983;DHT22;69426;28.138;-15.436;2023-04-25T14:41:42;22.06;67.01
64983;DHT22;69426;28.138;-15.436;2023-04-25T14:44:08;22.16;67.25
64983;DHT22;69426;28.138;-15.436;2023-04-25T14:46:34;22.25;67.09
64983;DHT22;69426;28.138;-15.436;2023-04-25T14:49:00;22.05;67.28
64983;DHT22;69426;28.138;-15.436;2023-04-25T14:51:26;22.05;66.86
64983;DHT22;69426;28.138;-15.436;2023-04-25T14:53:51;21.98;66.90
64983;DHT22;69426;28.138;-15.436;2023-04-25T14:56:18;21.94;67.48
64983;DHT22;69426;28.138;-15.436;2023-04-25T14:58:44;22.08;67.90
64983;DHT22;69426;28.138;-15.436;2023-04-25T15:01:11;22.21;67.39
64983;DHT22;69426;28.138;-15.436;2023-04-25T15:03:39;22.21;66.65
64983;DHT22;69426;28.138;-15.436;2023-04-25T15:06:05;22.25;66.30
64983;DHT22;69426;28.138;-15.436;2023-04-25T15:08:31;22.19;66.08
64983;DHT22;69426;28.138;-15.436;2023-04-25T15:10:58;22.39;65.91
64983;DHT22;69426;28.138;-15.436;2023-04-25T15:13:24;22.15;65.90